METAR AND TAF INFORMATION
METAR FOR KTRK
ADDS - METARS form results

(0332 UTC 30 March 2020)
Data provider http://aviationweather.gov/metar/data/
 
METAR text: KTRK 300315Z AUTO 00000KT 10SM SCT034 00/M02 A3008 RMK AO2
Conditions at: KTRK (TRUCKEE TAHOE , CA, US) observed 0315 UTC 30 March 2020
Temperature: 0.0°C (32°F)
Dewpoint: -2.0°C (28°F) [RH = 86%]
Pressure (altimeter): 30.08 inches Hg (1018.7 mb)
Winds: calm
Visibility: 10 or more miles (16+ km)
Ceiling: at least 12,000 feet AGL
Clouds: scattered clouds at 3400 feet AGL
Weather: automated observation with no human augmentation;
there may or may not be significant weather present at this time

METAR text: KTRK 300255Z AUTO 00000KT 10SM SCT034 01/M02 A3008 RMK AO2
Conditions at: KTRK (TRUCKEE TAHOE , CA, US) observed 0255 UTC 30 March 2020
Temperature: 1.0°C (34°F)
Dewpoint: -2.0°C (28°F) [RH = 80%]
Pressure (altimeter): 30.08 inches Hg (1018.7 mb)
Winds: calm
Visibility: 10 or more miles (16+ km)
Ceiling: at least 12,000 feet AGL
Clouds: scattered clouds at 3400 feet AGL
Weather: automated observation with no human augmentation;
there may or may not be significant weather present at this time

METAR text: KTRK 300235Z AUTO 00000KT 10SM BKN032 BKN040 01/M02 A3008 RMK AO2
Conditions at: KTRK (TRUCKEE TAHOE , CA, US) observed 0235 UTC 30 March 2020
Temperature: 1.0°C (34°F)
Dewpoint: -2.0°C (28°F) [RH = 80%]
Pressure (altimeter): 30.08 inches Hg (1018.7 mb)
Winds: calm
Visibility: 10 or more miles (16+ km)
Ceiling: 3200 feet AGL
Clouds: broken clouds at 3200 feet AGL
broken clouds at 4000 feet AGL
Weather: automated observation with no human augmentation;
there may or may not be significant weather present at this time

Forecast for: KTRK (TRUCKEE TAHOE , CA, US)
Text: KTRK 292345Z 3000/3024 26007G15KT P6SM VCSH SCT030 OVC040
Forecast period: 0000 to 0300 UTC 30 March 2020
Forecast type: FROM: standard forecast or significant change
Winds: from the W (260 degrees) at 8 MPH (7 knots; 3.6 m/s)
gusting to 17 MPH (15 knots; 7.7 m/s)
Visibility: 6 or more miles 10+ km)
Ceiling: 4000 feet AGL
Clouds: scattered clouds at 3000 feet AGL
overcast cloud deck at 4000 feet AGL
Weather: VCSH  (showers in vicinity)
Text: FM300300 VRB03KT P6SM SCT040 BKN200
Forecast period: 0300 to 1600 UTC 30 March 2020
Forecast type: FROM: standard forecast or significant change
Winds: variable direction winds at 3 MPH (3 knots; 1.5 m/s)
Visibility: 6 or more miles 10+ km)
Ceiling: 20000 feet AGL
Clouds: scattered clouds at 4000 feet AGL
broken clouds at 20000 feet AGL
Weather: no significant weather forecast for this period
Text: FM301600 23012G18KT P6SM BKN025 OVC040
Forecast period: 1600 to 2200 UTC 30 March 2020
Forecast type: FROM: standard forecast or significant change
Winds: from the SW (230 degrees) at 14 MPH (12 knots; 6.2 m/s)
gusting to 21 MPH (18 knots; 9.3 m/s)
Visibility: 6 or more miles 10+ km)
Ceiling: 2500 feet AGL
Clouds: broken clouds at 2500 feet AGL
overcast cloud deck at 4000 feet AGL
Weather: no significant weather forecast for this period
Text: FM302200 23012G27KT P6SM BKN030 OVC200
Forecast period: 2200 UTC 30 March 2020 to 0000 UTC 31 March 2020
Forecast type: FROM: standard forecast or significant change
Winds: from the SW (230 degrees) at 14 MPH (12 knots; 6.2 m/s)
gusting to 31 MPH (27 knots; 13.9 m/s)
Visibility: 6 or more miles 10+ km)
Ceiling: 3000 feet AGL
Clouds: broken clouds at 3000 feet AGL
overcast cloud deck at 20000 feet AGL
Weather: no significant weather forecast for this period

 AIRPORT MAP

 RUNWAY INFORMATION
Runway 02 Runway length 4650 ft Runway width 75 ft
Runway elevation 5886 ft Runway displaced threshold 0 ft Runway heading 30
Runway 20 Runway length 4650 ft Runway width 75 ft
Runway elevation 5891 ft Runway displaced threshold 115 ft Runway heading 210
Runway 11 Runway length 7000 ft Runway width 100 ft
Runway elevation 5897 ft Runway displaced threshold 0 ft Runway heading 120
Runway 29 Runway length 7000 ft Runway width 100 ft
Runway elevation 5889 ft Runway displaced threshold 0 ft Runway heading 300

 AIRPORT FREQUENCIES
Type AWOS Name AWOS 3 Frequency 118 MHZ
Type CNTR Name OAKLAND CN Frequency 127.95 MHZ
Type UNIC Name CTAF/UNICO Frequency 122.8 MHZ

 AIRPORT NEAR NAVIGATION AIDS



Powered by Virtual Airlines Manager [v2.6.2]